リスボン の空港の天気 - METARとTAF

ポルテラ空港 ( LPPT / LIS ) - ポルトガル リスボン
飛行場実況気象(Metar)
観測時間01/16 18:30 WET (01/16 18:30 UTC)
風向・風速静穏 0m/s
視程10km以上
天気現象
なし
気温11℃
湿度94%
気圧1030hPa
METARLPPT 161830Z 00000KT CAVOK 11/10 Q1030
過去の天気等 Google飛行場航空写真 Wunderground天気予報

過去48時間のMETAR

飛行場予報(TAF)
発表時間: 1/16 17:00 WET (1/16 17:00 UTC)
予報対象時間: 16日18時 WET ~ 18日0時 WET
風向・風速東 3m/s
視程10km以上
少しの雲 雲底高度 1070m
16日18時 WET から 確率 30% で
風向・風速北北西 4m/s
16日21時 WET ~ 16日24時 WET に徐々に
風向・風速北北東 4m/s
視程10km以上
なし
17日12時 WET ~ 17日15時 WET に徐々に
風向・風速東北東 5m/s
TAF LPPT 161700Z 1618/1724 08005KT 9999 FEW035
PROB30 1618/1621 34007KT
BECMG 1621/1624 03007KT CAVOK
BECMG 1712/1715 06010KT